Time;durP1;ratioP1;P1;durP2;ratioP2;P2;SDS_P1;SDS_P2;PMS_P1;PMS_P2;Temp;Humidity;BMP_temperature;BMP_pressure;BME280_temperature;BME280_humidity;BME280_pressure;Samples;Min_cycle;Max_cycle;Signal;HPM_P1;HPM_P2
2022/09/09 00:02:15;;;;;;;1999.90;999.90;;;;;;;-144.65;100.00;64500.88;4995900;28;20391;-76
2022/09/09 00:04:41;;;;;;;1999.90;999.90;;;;;;;-144.65;100.00;64500.88;5033091;28;20478;-76
2022/09/09 00:07:24;;;;;;;1999.90;999.90;;;;;;;-144.65;100.00;64500.88;5033760;28;20557;-75
2022/09/09 00:10:11;;;;;;;1999.90;999.90;;;;;;;-144.65;100.00;64500.88;5033073;28;20120;-75
2022/09/09 00:13:23;;;;;;;1999.90;999.90;;;;;;;-144.65;100.00;64500.88;5033105;28;20083;-76
2022/09/09 00:15:59;;;;;;;1999.90;999.90;;;;;;;-144.65;100.00;64500.88;4972105;28;20073;-75
2022/09/09 00:18:32;;;;;;;1999.90;999.90;;;;;;;-144.65;100.00;64500.88;4971909;28;20034;-76
2022/09/09 00:21:07;;;;;;;1999.90;999.90;;;;;;;-144.65;100.00;64500.88;5007385;28;20128;-76
2022/09/09 00:23:44;;;;;;;1999.90;999.90;;;;;;;-144.65;100.00;64500.88;5033006;28;20132;-75
2022/09/09 00:26:20;;;;;;;1999.90;999.90;;;;;;;-144.65;100.00;64500.88;5032454;28;20067;-75
2022/09/09 00:28:48;;;;;;;1999.90;999.90;;;;;;;-144.65;100.00;64500.88;5015090;28;20450;-75
2022/09/09 00:31:20;;;;;;;1999.90;999.90;;;;;;;-144.65;100.00;64500.88;5032924;28;20079;-76
2022/09/09 00:33:47;;;;;;;1999.90;999.90;;;;;;;-144.65;100.00;64500.88;5032787;28;20127;-75
2022/09/09 00:36:17;;;;;;;1999.90;999.90;;;;;;;-144.65;100.00;64500.88;5032813;28;20036;-75
2022/09/09 00:38:47;;;;;;;1999.90;999.90;;;;;;;-144.65;100.00;64500.88;5032746;28;20026;-75
2022/09/09 00:42:00;;;;;;;1999.90;999.90;;;;;;;-144.65;100.00;64500.88;5032736;28;20041;-75
2022/09/09 00:44:36;;;;;;;1999.90;999.90;;;;;;;-144.65;100.00;64500.88;5032681;28;20026;-76
2022/09/09 00:47:21;;;;;;;1999.90;999.90;;;;;;;-144.65;100.00;64500.88;5032455;28;20018;-76
2022/09/09 00:50:18;;;;;;;1999.90;999.90;;;;;;;-144.65;100.00;64500.88;5032359;28;20040;-77
2022/09/09 00:53:14;;;;;;;1999.90;999.90;;;;;;;-144.65;100.00;64500.88;5001204;28;20152;-75
2022/09/09 00:55:56;;;;;;;1999.90;999.90;;;;;;;-144.65;100.00;64500.88;5012631;28;20038;-75
2022/09/09 00:58:21;;;;;;;1999.90;999.90;;;;;;;-144.65;100.00;64500.88;5012729;28;20752;-75
2022/09/09 01:00:56;;;;;;;1999.90;999.90;;;;;;;-144.65;100.00;64500.88;5012603;28;20029;-76
2022/09/09 01:03:44;;;;;;;1999.90;999.90;;;;;;;-144.65;100.00;64500.88;5012702;28;20026;-75
2022/09/09 01:06:32;;;;;;;1999.90;999.90;;;;;;;-144.65;100.00;64500.88;5012997;28;20091;-75
2022/09/09 01:09:07;;;;;;;1999.90;999.90;;;;;;;-144.65;100.00;64500.88;5011749;28;20034;-76
2022/09/09 01:11:39;;;;;;;1999.90;999.90;;;;;;;-144.65;100.00;64500.88;5012382;28;20113;-75
2022/09/09 01:14:39;;;;;;;1999.90;999.90;;;;;;;-144.65;100.00;64500.88;5013656;28;20499;-77
2022/09/09 01:17:23;;;;;;;1999.90;999.90;;;;;;;-144.65;100.00;64500.88;4990256;28;20104;-78
2022/09/09 01:20:03;;;;;;;1999.90;999.90;;;;;;;-144.65;100.00;64500.88;5010448;28;20092;-76
2022/09/09 01:22:35;;;;;;;1999.90;999.90;;;;;;;-144.65;100.00;64500.88;5012032;28;20022;-76
2022/09/09 01:25:18;;;;;;;1999.90;999.90;;;;;;;-144.65;100.00;64500.88;5012678;28;20022;-76
2022/09/09 01:27:46;;;;;;;1999.90;999.90;;;;;;;-144.65;100.00;64500.88;5012494;28;20084;-75
2022/09/09 01:30:15;;;;;;;1999.90;999.90;;;;;;;-144.65;100.00;64500.88;5011668;28;20479;-75
2022/09/09 01:32:51;;;;;;;1999.90;999.90;;;;;;;-144.65;100.00;64500.88;4993718;28;20033;-76
2022/09/09 01:35:28;;;;;;;1999.90;999.90;;;;;;;-144.65;100.00;64500.88;5011570;28;20038;-76
2022/09/09 01:37:54;;;;;;;1999.90;999.90;;;;;;;-144.65;100.00;64500.88;5012851;28;20034;-76
2022/09/09 01:40:19;;;;;;;1999.90;999.90;;;;;;;-144.65;100.00;64500.88;5012160;28;20041;-75
2022/09/09 01:42:45;;;;;;;1999.90;999.90;;;;;;;-144.65;100.00;64500.88;5011572;28;20021;-75
2022/09/09 01:45:10;;;;;;;1999.90;999.90;;;;;;;-144.65;100.00;64500.88;5011518;28;20500;-75
2022/09/09 01:47:35;;;;;;;1999.90;999.90;;;;;;;-144.65;100.00;64500.88;4993673;28;20057;-76
2022/09/09 01:50:02;;;;;;;1999.90;999.90;;;;;;;-144.65;100.00;64500.88;5011452;28;20038;-75
2022/09/09 01:52:29;;;;;;;1999.90;999.90;;;;;;;-144.65;100.00;64500.88;5025849;28;20030;-75
2022/09/09 01:54:55;;;;;;;1999.90;999.90;;;;;;;-144.65;100.00;64500.88;5031099;28;20029;-75
2022/09/09 01:57:30;;;;;;;1999.90;999.90;;;;;;;-144.65;100.00;64500.88;5031042;28;20379;-76
2022/09/09 01:59:58;;;;;;;1999.90;999.90;;;;;;;-144.65;100.00;64500.88;5030329;28;20449;-76
2022/09/09 02:02:35;;;;;;;1999.90;999.90;;;;;;;-144.65;100.00;64500.88;5029774;28;20068;-76
2022/09/09 02:05:37;;;;;;;1999.90;999.90;;;;;;;-144.65;100.00;64500.88;5030773;28;20471;-75
2022/09/09 02:08:07;;;;;;;1999.90;999.90;;;;;;;-144.65;100.00;64500.88;4931598;29;20032;-76
2022/09/09 02:10:46;;;;;;;1999.90;999.90;;;;;;;-144.65;100.00;64500.88;5015184;28;20504;-76
2022/09/09 02:13:19;;;;;;;1999.90;999.90;;;;;;;-144.65;100.00;64500.88;5029301;28;20057;-75
2022/09/09 02:16:07;;;;;;;1999.90;999.90;;;;;;;-144.65;100.00;64500.88;5030265;28;20037;-76
2022/09/09 02:18:40;;;;;;;1999.90;999.90;;;;;;;-144.65;100.00;64500.88;5030600;28;20033;-78
2022/09/09 02:21:06;;;;;;;1999.90;999.90;;;;;;;-144.65;100.00;64500.88;5040345;28;20033;-75
2022/09/09 02:23:34;;;;;;;1999.90;999.90;;;;;;;-144.65;100.00;64500.88;5050259;28;20028;-75
2022/09/09 02:26:01;;;;;;;1999.90;999.90;;;;;;;-144.65;100.00;64500.88;5051783;28;20032;-75
2022/09/09 02:28:31;;;;;;;1999.90;999.90;;;;;;;-144.65;100.00;64500.88;5036059;28;20042;-75
2022/09/09 02:30:58;;;;;;;1999.90;999.90;;;;;;;-144.65;100.00;64500.88;5027249;28;20484;-75
2022/09/09 02:33:28;;;;;;;1999.90;999.90;;;;;;;-144.65;100.00;64500.88;5031996;28;20032;-76
2022/09/09 02:36:01;;;;;;;1999.90;999.90;;;;;;;-144.65;100.00;64500.88;5012614;28;20081;-75
2022/09/09 02:38:29;;;;;;;1999.90;999.90;;;;;;;-144.65;100.00;64500.88;5011659;28;20116;-75
2022/09/09 02:40:54;;;;;;;1999.90;999.90;;;;;;;-144.65;100.00;64500.88;5011651;28;20439;-76
2022/09/09 02:43:20;;;;;;;1999.90;999.90;;;;;;;-144.65;100.00;64500.88;5010670;28;20057;-76
2022/09/09 02:46:00;;;;;;;1999.90;999.90;;;;;;;-144.65;100.00;64500.88;5012178;28;20044;-75
2022/09/09 02:48:38;;;;;;;1999.90;999.90;;;;;;;-144.65;100.00;64500.88;5029824;28;20032;-76
2022/09/09 02:51:15;;;;;;;1999.90;999.90;;;;;;;-144.65;100.00;64500.88;5030006;28;20184;-76
2022/09/09 02:53:53;;;;;;;1999.90;999.90;;;;;;;-144.65;100.00;64500.88;5030216;28;20028;-76
2022/09/09 02:56:23;;;;;;;1999.90;999.90;;;;;;;-144.65;100.00;64500.88;5030034;28;20088;-76
2022/09/09 02:58:51;;;;;;;1999.90;999.90;;;;;;;-144.65;100.00;64500.88;5029977;28;20100;-76
2022/09/09 03:01:17;;;;;;;1999.90;999.90;;;;;;;-144.65;100.00;64500.88;5013192;28;20486;-75
2022/09/09 03:03:44;;;;;;;1999.90;999.90;;;;;;;-144.65;100.00;64500.88;5012724;28;20030;-76
2022/09/09 03:06:11;;;;;;;1999.90;999.90;;;;;;;-144.65;100.00;64500.88;5029928;28;20100;-76
2022/09/09 03:08:37;;;;;;;1999.90;999.90;;;;;;;-144.65;100.00;64500.88;5030978;28;20033;-75
2022/09/09 03:11:03;;;;;;;1999.90;999.90;;;;;;;-144.65;100.00;64500.88;5030081;28;20387;-77
2022/09/09 03:13:28;;;;;;;1999.90;999.90;;;;;;;-144.65;100.00;64500.88;5034124;28;20056;-76
2022/09/09 03:15:54;;;;;;;1999.90;999.90;;;;;;;-144.65;100.00;64500.88;5033973;28;20029;-76
2022/09/09 03:18:19;;;;;;;1999.90;999.90;;;;;;;-144.65;100.00;64500.88;5033104;28;20033;-76
2022/09/09 03:20:48;;;;;;;1999.90;999.90;;;;;;;-144.65;100.00;64500.88;5015628;28;20522;-76
2022/09/09 03:23:13;;;;;;;1999.90;999.90;;;;;;;-144.65;100.00;64500.88;5033603;28;20037;-76
2022/09/09 03:25:39;;;;;;;1999.90;999.90;;;;;;;-144.65;100.00;64500.88;5033231;28;20033;-76
2022/09/09 03:28:04;;;;;;;1999.90;999.90;;;;;;;-144.65;100.00;64500.88;5033390;28;20108;-76
2022/09/09 03:30:30;;;;;;;1999.90;999.90;;;;;;;-144.65;100.00;64500.88;5033571;28;20033;-77
2022/09/09 03:32:56;;;;;;;1999.90;999.90;;;;;;;-144.65;100.00;64500.88;5033749;28;20065;-76
2022/09/09 03:35:22;;;;;;;1999.90;999.90;;;;;;;-144.65;100.00;64500.88;5046263;28;20119;-75
2022/09/09 03:37:47;;;;;;;1999.90;999.90;;;;;;;-144.65;100.00;64500.88;5054106;28;20496;-76
2022/09/09 03:40:13;;;;;;;1999.90;999.90;;;;;;;-144.65;100.00;64500.88;5048464;28;20084;-76
2022/09/09 03:42:39;;;;;;;1999.90;999.90;;;;;;;-144.65;100.00;64500.88;5032842;28;20021;-76
2022/09/09 03:45:06;;;;;;;1999.90;999.90;;;;;;;-144.65;100.00;64500.88;5033082;28;20446;-76
2022/09/09 03:47:31;;;;;;;1999.90;999.90;;;;;;;-144.65;100.00;64500.88;5033404;28;20028;-75
2022/09/09 03:49:57;;;;;;;1999.90;999.90;;;;;;;-144.65;100.00;64500.88;5033311;28;20041;-76
2022/09/09 03:52:24;;;;;;;1999.90;999.90;;;;;;;-144.65;100.00;64500.88;5033134;28;20056;-75
2022/09/09 03:54:50;;;;;;;1999.90;999.90;;;;;;;-144.65;100.00;64500.88;5033112;28;20087;-75
2022/09/09 03:57:16;;;;;;;1999.90;999.90;;;;;;;-144.65;100.00;64500.88;5033064;28;20025;-76
2022/09/09 03:59:42;;;;;;;1999.90;999.90;;;;;;;-144.65;100.00;64500.88;5025370;28;20022;-76
2022/09/09 04:02:08;;;;;;;1999.90;999.90;;;;;;;-144.65;100.00;64500.88;5023617;28;20475;-76
2022/09/09 04:04:34;;;;;;;1999.90;999.90;;;;;;;-144.65;100.00;64500.88;5031567;28;20037;-76
2022/09/09 04:06:59;;;;;;;1999.90;999.90;;;;;;;-144.65;100.00;64500.88;5015757;28;20030;-75
2022/09/09 04:09:25;;;;;;;1999.90;999.90;;;;;;;-144.65;100.00;64500.88;5013398;28;20053;-76
2022/09/09 04:11:50;;;;;;;1999.90;999.90;;;;;;;-144.65;100.00;64500.88;5014066;28;20026;-77
2022/09/09 04:14:15;;;;;;;1999.90;999.90;;;;;;;-144.65;100.00;64500.88;5012599;28;20026;-76
2022/09/09 04:16:44;;;;;;;1999.90;999.90;;;;;;;-144.65;100.00;64500.88;5012945;28;20052;-76
2022/09/09 04:19:13;;;;;;;1999.90;999.90;;;;;;;-144.65;100.00;64500.88;5030409;28;20095;-76
2022/09/09 04:21:39;;;;;;;1999.90;999.90;;;;;;;-144.65;100.00;64500.88;5030865;28;20061;-75
2022/09/09 04:24:05;;;;;;;1999.90;999.90;;;;;;;-144.65;100.00;64500.88;5032342;28;20022;-76
2022/09/09 04:26:31;;;;;;;1999.90;999.90;;;;;;;-144.65;100.00;64500.88;5033326;28;20103;-76
2022/09/09 04:28:56;;;;;;;1999.90;999.90;;;;;;;-144.65;100.00;64500.88;5024875;28;20025;-79
2022/09/09 04:31:23;;;;;;;1999.90;999.90;;;;;;;-144.65;100.00;64500.88;5050695;28;20056;-78
2022/09/09 04:33:52;;;;;;;1999.90;999.90;;;;;;;-144.65;100.00;64500.88;5044323;28;20036;-77
2022/09/09 04:36:19;;;;;;;1999.90;999.90;;;;;;;-144.65;100.00;64500.88;5037358;28;20025;-78
2022/09/09 04:38:45;;;;;;;1999.90;999.90;;;;;;;-144.65;100.00;64500.88;5037248;28;20425;-80
2022/09/09 04:41:11;;;;;;;1999.90;999.90;;;;;;;-144.65;100.00;64500.88;5035190;28;20030;-77
2022/09/09 04:43:37;;;;;;;1999.90;999.90;;;;;;;-144.65;100.00;64500.88;5035005;28;20037;-76
2022/09/09 04:46:03;;;;;;;1999.90;999.90;;;;;;;-144.65;100.00;64500.88;5034396;28;20048;-76
2022/09/09 04:48:28;;;;;;;1999.90;999.90;;;;;;;-144.65;100.00;64500.88;5035297;28;20489;-76
2022/09/09 04:50:58;;;;;;;1999.90;999.90;;;;;;;-144.65;100.00;64500.88;5037792;28;20156;-77
2022/09/09 04:53:25;;;;;;;1999.90;999.90;;;;;;;-144.65;100.00;64500.88;5033309;28;20120;-77
2022/09/09 04:55:51;;;;;;;1999.90;999.90;;;;;;;-144.65;100.00;64500.88;5032650;28;20029;-77
2022/09/09 04:58:17;;;;;;;1999.90;999.90;;;;;;;-144.65;100.00;64500.88;5032186;28;20025;-76
2022/09/09 05:00:42;;;;;;;1999.90;999.90;;;;;;;-144.65;100.00;64500.88;5034188;28;20065;-76
2022/09/09 05:03:08;;;;;;;1999.90;999.90;;;;;;;-144.65;100.00;64500.88;5032139;28;20124;-77
2022/09/09 05:05:34;;;;;;;1999.90;999.90;;;;;;;-144.65;100.00;64500.88;5032126;28;20034;-77
2022/09/09 05:08:04;;;;;;;1999.90;999.90;;;;;;;-144.65;100.00;64500.88;5034644;28;20018;-77
2022/09/09 05:10:29;;;;;;;1999.90;999.90;;;;;;;-144.65;100.00;64500.88;5032718;28;20037;-74
2022/09/09 05:12:55;;;;;;;1999.90;999.90;;;;;;;-144.65;100.00;64500.88;5031354;28;20033;-75
2022/09/09 05:15:21;;;;;;;1999.90;999.90;;;;;;;-144.65;100.00;64500.88;5031337;28;20014;-73
2022/09/09 05:17:46;;;;;;;1999.90;999.90;;;;;;;-144.65;100.00;64500.88;5031109;28;20033;-75
2022/09/09 05:20:12;;;;;;;1999.90;999.90;;;;;;;-144.65;100.00;64500.88;5031431;28;20088;-74
2022/09/09 05:22:37;;;;;;;1999.90;999.90;;;;;;;-144.65;100.00;64500.88;5031327;28;20024;-74
2022/09/09 05:25:03;;;;;;;1999.90;999.90;;;;;;;-144.65;100.00;64500.88;5031115;28;20025;-74
2022/09/09 05:27:31;;;;;;;1999.90;999.90;;;;;;;-144.65;100.00;64500.88;5031155;28;20104;-73
2022/09/09 05:29:57;;;;;;;1999.90;999.90;;;;;;;-144.65;100.00;64500.88;5030719;28;20390;-73
2022/09/09 05:32:22;;;;;;;1999.90;999.90;;;;;;;-144.65;100.00;64500.88;5031413;28;20037;-74
2022/09/09 05:34:48;;;;;;;1999.90;999.90;;;;;;;-144.65;100.00;64500.88;5029943;28;20025;-74
2022/09/09 05:37:13;;;;;;;1999.90;999.90;;;;;;;-144.65;100.00;64500.88;5031321;28;20022;-75
2022/09/09 05:39:39;;;;;;;1999.90;999.90;;;;;;;-144.65;100.00;64500.88;5031351;28;20045;-75
2022/09/09 05:42:05;;;;;;;1999.90;999.90;;;;;;;-144.65;100.00;64500.88;5030607;28;20076;-74
2022/09/09 05:44:30;;;;;;;1999.90;999.90;;;;;;;-144.65;100.00;64500.88;5030674;28;20030;-74
2022/09/09 05:46:57;;;;;;;1999.90;999.90;;;;;;;-144.65;100.00;64500.88;5030246;28;20398;-75
2022/09/09 05:49:23;;;;;;;1999.90;999.90;;;;;;;-144.65;100.00;64500.88;5030448;28;20025;-76
2022/09/09 05:51:50;;;;;;;1999.90;999.90;;;;;;;-144.65;100.00;64500.88;5029722;28;20096;-76
2022/09/09 05:54:16;;;;;;;1999.90;999.90;;;;;;;-144.65;100.00;64500.88;5025141;28;20028;-76
2022/09/09 05:56:41;;;;;;;1999.90;999.90;;;;;;;-144.65;100.00;64500.88;5012549;28;20025;-74
2022/09/09 05:59:07;;;;;;;1999.90;999.90;;;;;;;-144.65;100.00;64500.88;5010466;28;20025;-76
2022/09/09 06:01:34;;;;;;;1999.90;999.90;;;;;;;-144.65;100.00;64500.88;5009951;28;20057;-74
2022/09/09 06:04:00;;;;;;;1999.90;999.90;;;;;;;-144.65;100.00;64500.88;5011384;28;20033;-73
2022/09/09 06:06:31;;;;;;;1999.90;999.90;;;;;;;-144.65;100.00;64500.88;5011479;28;20080;-73
2022/09/09 06:09:00;;;;;;;1999.90;999.90;;;;;;;-144.65;100.00;64500.88;5011648;28;20037;-72
2022/09/09 06:11:30;;;;;;;1999.90;999.90;;;;;;;-144.65;100.00;64500.88;5009801;28;20018;-72
2022/09/09 06:13:56;;;;;;;1999.90;999.90;;;;;;;-144.65;100.00;64500.88;5009791;28;20442;-73
2022/09/09 06:16:24;;;;;;;1999.90;999.90;;;;;;;-144.65;100.00;64500.88;5009854;28;20058;-72
2022/09/09 06:18:50;;;;;;;1999.90;999.90;;;;;;;-144.65;100.00;64500.88;5010053;28;20056;-71
2022/09/09 06:21:27;;;;;;;1999.90;999.90;;;;;;;-144.65;100.00;64500.88;5009917;28;20037;-73
2022/09/09 06:23:52;;;;;;;1999.90;999.90;;;;;;;-144.65;100.00;64500.88;5008716;28;20029;-72
2022/09/09 06:26:24;;;;;;;1999.90;999.90;;;;;;;-144.65;100.00;64500.88;5009682;28;20021;-74
2022/09/09 06:28:52;;;;;;;1999.90;999.90;;;;;;;-144.65;100.00;64500.88;5014404;28;20391;-73
2022/09/09 06:31:21;;;;;;;1999.90;999.90;;;;;;;-144.65;100.00;64500.88;5022377;28;20558;-73
2022/09/09 06:33:47;;;;;;;1999.90;999.90;;;;;;;-144.65;100.00;64500.88;5014766;28;20037;-74
2022/09/09 06:36:14;;;;;;;1999.90;999.90;;;;;;;-144.65;100.00;64500.88;5013019;28;20394;-72
2022/09/09 06:38:41;;;;;;;1999.90;999.90;;;;;;;-144.65;100.00;64500.88;5029737;28;20052;-73
2022/09/09 06:41:08;;;;;;;1999.90;999.90;;;;;;;-144.65;100.00;64500.88;5029973;28;20063;-73
2022/09/09 06:43:34;;;;;;;1999.90;999.90;;;;;;;-144.65;100.00;64500.88;5030457;28;20030;-73
2022/09/09 06:46:27;;;;;;;1999.90;999.90;;;;;;;-144.65;100.00;64500.88;5020068;28;20450;-73
2022/09/09 06:48:58;;;;;;;1999.90;999.90;;;;;;;-144.65;100.00;64500.88;5007755;28;20084;-72
2022/09/09 06:51:28;;;;;;;1999.90;999.90;;;;;;;-144.65;100.00;64500.88;5023994;28;20461;-72
2022/09/09 06:53:56;;;;;;;1999.90;999.90;;;;;;;-144.65;100.00;64500.88;5019383;28;20026;-72
2022/09/09 06:56:24;;;;;;;1999.90;999.90;;;;;;;-144.65;100.00;64500.88;4994151;28;20367;-71
2022/09/09 06:58:51;;;;;;;1999.90;999.90;;;;;;;-144.65;100.00;64500.88;5020084;28;20572;-74
2022/09/09 07:01:19;;;;;;;1999.90;999.90;;;;;;;-144.65;100.00;64500.88;5028581;28;20037;-73
2022/09/09 07:03:50;;;;;;;1999.90;999.90;;;;;;;-144.65;100.00;64500.88;5039583;28;20113;-79
2022/09/09 07:06:23;;;;;;;1999.90;999.90;;;;;;;-144.65;100.00;64500.88;5039062;28;20034;-79
2022/09/09 07:08:54;;;;;;;1999.90;999.90;;;;;;;-144.65;100.00;64500.88;5037762;28;20498;-82
2022/09/09 07:11:21;;;;;;;1999.90;999.90;;;;;;;-144.65;100.00;64500.88;5034267;28;20032;-78
2022/09/09 07:13:47;;;;;;;1999.90;999.90;;;;;;;-144.65;100.00;64500.88;5037875;28;20018;-80
2022/09/09 07:16:16;;;;;;;1999.90;999.90;;;;;;;-144.65;100.00;64500.88;5045029;28;20028;-79
2022/09/09 07:18:41;;;;;;;1999.90;999.90;;;;;;;-144.65;100.00;64500.88;5042888;28;20037;-81
2022/09/09 07:21:08;;;;;;;1999.90;999.90;;;;;;;-144.65;100.00;64500.88;5038623;28;20030;-82
2022/09/09 07:23:35;;;;;;;1999.90;999.90;;;;;;;-144.65;100.00;64500.88;5017814;28;20080;-82
2022/09/09 07:26:01;;;;;;;1999.90;999.90;;;;;;;-144.65;100.00;64500.88;5036229;28;20500;-80
2022/09/09 07:28:28;;;;;;;1999.90;999.90;;;;;;;-144.65;100.00;64500.88;5035309;28;20025;-81
2022/09/09 07:30:58;;;;;;;1999.90;999.90;;;;;;;-144.65;100.00;64500.88;5016841;28;20385;-83
2022/09/09 07:33:25;;;;;;;1999.90;999.90;;;;;;;-144.65;100.00;64500.88;5035521;28;20033;-79
2022/09/09 07:35:51;;;;;;;1999.90;999.90;;;;;;;-144.65;100.00;64500.88;5035798;28;20026;-81
2022/09/09 07:38:18;;;;;;;1999.90;999.90;;;;;;;-144.65;100.00;64500.88;5036568;28;20029;-81
2022/09/09 07:40:44;;;;;;;1999.90;999.90;;;;;;;-144.65;100.00;64500.88;5034497;28;20425;-79
2022/09/09 07:43:09;;;;;;;1999.90;999.90;;;;;;;-144.65;100.00;64500.88;5035672;28;20025;-78
2022/09/09 07:45:35;;;;;;;1999.90;999.90;;;;;;;-144.65;100.00;64500.88;5034721;28;20030;-79
2022/09/09 07:48:01;;;;;;;1999.90;999.90;;;;;;;-144.65;100.00;64500.88;5037653;28;20421;-76
2022/09/09 07:50:27;;;;;;;1999.90;999.90;;;;;;;-144.65;100.00;64500.88;5043098;28;20113;-79
2022/09/09 07:52:53;;;;;;;1999.90;999.90;;;;;;;-144.65;100.00;64500.88;5023166;28;20061;-81
2022/09/09 07:55:19;;;;;;;1999.90;999.90;;;;;;;-144.65;100.00;64500.88;5020022;28;20025;-79
2022/09/09 07:57:45;;;;;;;1999.90;999.90;;;;;;;-144.65;100.00;64500.88;5040008;28;20021;-80
2022/09/09 08:00:11;;;;;;;1999.90;999.90;;;;;;;-144.65;100.00;64500.88;5040921;28;20505;-79
2022/09/09 08:02:36;;;;;;;1999.90;999.90;;;;;;;-144.65;100.00;64500.88;5041984;28;20037;-76
2022/09/09 08:05:02;;;;;;;1999.90;999.90;;;;;;;-144.65;100.00;64500.88;5040099;28;20125;-78
2022/09/09 08:07:28;;;;;;;1999.90;999.90;;;;;;;-144.65;100.00;64500.88;5041444;28;20021;-78
2022/09/09 08:09:55;;;;;;;1999.90;999.90;;;;;;;-144.65;100.00;64500.88;5040955;28;20040;-79
2022/09/09 08:12:21;;;;;;;1999.90;999.90;;;;;;;-144.65;100.00;64500.88;5038767;28;20084;-78
2022/09/09 08:14:46;;;;;;;1999.90;999.90;;;;;;;-144.65;100.00;64500.88;5041207;28;20022;-79
2022/09/09 08:17:11;;;;;;;1999.90;999.90;;;;;;;-144.65;100.00;64500.88;5042970;28;20028;-77
2022/09/09 08:19:36;;;;;;;1999.90;999.90;;;;;;;-144.65;100.00;64500.88;5046071;28;20132;-79
2022/09/09 08:22:03;;;;;;;1999.90;999.90;;;;;;;-144.65;100.00;64500.88;5045581;28;20108;-78
2022/09/09 08:24:28;;;;;;;1999.90;999.90;;;;;;;-144.65;100.00;64500.88;5042357;28;20033;-78
2022/09/09 08:26:54;;;;;;;1999.90;999.90;;;;;;;-144.65;100.00;64500.88;5042446;28;20017;-78
2022/09/09 08:29:20;;;;;;;1999.90;999.90;;;;;;;-144.65;100.00;64500.88;5042909;28;20509;-78
2022/09/09 08:31:54;;;;;;;1999.90;999.90;;;;;;;-144.65;100.00;64500.88;5040800;28;20025;-80
2022/09/09 08:34:20;;;;;;;1999.90;999.90;;;;;;;-144.65;100.00;64500.88;5034271;28;20033;-78
2022/09/09 08:36:47;;;;;;;1999.90;999.90;;;;;;;-144.65;100.00;64500.88;5029914;28;20545;-77
2022/09/09 08:39:15;;;;;;;1999.90;999.90;;;;;;;-144.65;100.00;64500.88;5010065;28;20116;-79
2022/09/09 08:41:50;;;;;;;1999.90;999.90;;;;;;;-144.65;100.00;64500.88;5033481;28;20060;-76
2022/09/09 08:44:18;;;;;;;1999.90;999.90;;;;;;;-144.65;100.00;64500.88;4993226;28;20026;-76
2022/09/09 08:47:19;;;;;;;1999.90;999.90;;;;;;;-144.65;100.00;64500.88;5026641;28;20116;-76
2022/09/09 08:50:05;;;;;;;1999.90;999.90;;;;;;;-144.65;100.00;64500.88;5031236;28;20044;-76
2022/09/09 08:53:07;;;;;;;1999.90;999.90;;;;;;;-144.65;100.00;64500.88;5028017;28;20124;-76
2022/09/09 08:55:49;;;;;;;1999.90;999.90;;;;;;;-144.65;100.00;64500.88;4932804;29;20150;-75
2022/09/09 08:58:19;;;;;;;1999.90;999.90;;;;;;;-144.65;100.00;64500.88;5020157;28;20043;-78
2022/09/09 09:01:06;;;;;;;1999.90;999.90;;;;;;;-144.65;100.00;64500.88;5031522;28;20084;-76
2022/09/09 09:03:44;;;;;;;1999.90;999.90;;;;;;;-144.65;100.00;64500.88;5031062;28;20063;-78
2022/09/09 09:06:30;;;;;;;1999.90;999.90;;;;;;;-144.65;100.00;64500.88;5028428;28;20063;-78
2022/09/09 09:09:14;;;;;;;1999.90;999.90;;;;;;;-144.65;100.00;64500.88;5011302;28;20069;-76
2022/09/09 09:11:50;;;;;;;1999.90;999.90;;;;;;;-144.65;100.00;64500.88;5030761;28;20478;-76
2022/09/09 09:14:25;;;;;;;1999.90;999.90;;;;;;;-144.65;100.00;64500.88;5030050;28;20034;-76
2022/09/09 09:16:53;;;;;;;1999.90;999.90;;;;;;;-144.65;100.00;64500.88;5030159;28;20048;-76
2022/09/09 09:19:18;;;;;;;1999.90;999.90;;;;;;;-144.65;100.00;64500.88;5030743;28;20060;-76
2022/09/09 09:21:44;;;;;;;1999.90;999.90;;;;;;;-144.65;100.00;64500.88;5031059;28;20537;-76
2022/09/09 09:24:24;;;;;;;1999.90;999.90;;;;;;;-144.65;100.00;64500.88;5030792;28;20033;-76
2022/09/09 09:26:50;;;;;;;1999.90;999.90;;;;;;;-144.65;100.00;64500.88;5011496;28;20028;-77
2022/09/09 09:29:21;;;;;;;1999.90;999.90;;;;;;;-144.65;100.00;64500.88;5031050;28;20034;-75
2022/09/09 09:31:50;;;;;;;1999.90;999.90;;;;;;;-144.65;100.00;64500.88;5027005;28;20387;-76
2022/09/09 09:34:17;;;;;;;1999.90;999.90;;;;;;;-144.65;100.00;64500.88;5030630;28;20034;-76
2022/09/09 09:36:53;;;;;;;1999.90;999.90;;;;;;;-144.65;100.00;64500.88;5012674;28;20033;-75
2022/09/09 09:39:26;;;;;;;1999.90;999.90;;;;;;;-144.65;100.00;64500.88;5012044;28;20037;-76
2022/09/09 09:41:52;;;;;;;1999.90;999.90;;;;;;;-144.65;100.00;64500.88;5031396;28;20014;-76
2022/09/09 09:44:37;;;;;;;1999.90;999.90;;;;;;;-144.65;100.00;64500.88;5031758;28;20025;-77
2022/09/09 09:47:13;;;;;;;1999.90;999.90;;;;;;;-144.65;100.00;64500.88;5031659;28;20065;-76
2022/09/09 09:49:39;;;;;;;1999.90;999.90;;;;;;;-144.65;100.00;64500.88;5031925;28;20117;-76
2022/09/09 09:52:07;;;;;;;1999.90;999.90;;;;;;;-144.65;100.00;64500.88;5021626;28;20064;-76
2022/09/09 09:54:38;;;;;;;1999.90;999.90;;;;;;;-144.65;100.00;64500.88;5032578;28;20021;-75
2022/09/09 09:57:14;;;;;;;1999.90;999.90;;;;;;;-144.65;100.00;64500.88;5033409;28;20479;-76
2022/09/09 09:59:40;;;;;;;1999.90;999.90;;;;;;;-144.65;100.00;64500.88;5031650;28;20387;-76
2022/09/09 10:02:13;;;;;;;1999.90;999.90;;;;;;;-144.65;100.00;64500.88;5032981;28;20025;-76
2022/09/09 10:04:38;;;;;;;1999.90;999.90;;;;;;;-144.65;100.00;64500.88;5030352;28;20386;-76
2022/09/09 10:07:20;;;;;;;1999.90;999.90;;;;;;;-144.65;100.00;64500.88;5032095;28;20025;-77
2022/09/09 10:09:54;;;;;;;1999.90;999.90;;;;;;;-144.65;100.00;64500.88;5029490;28;20041;-76
2022/09/09 10:12:48;;;;;;;1999.90;999.90;;;;;;;-144.65;100.00;64500.88;5026689;28;20035;-76
2022/09/09 10:15:31;;;;;;;1999.90;999.90;;;;;;;-144.65;100.00;64500.88;5030015;28;20131;-77
2022/09/09 10:18:08;;;;;;;1999.90;999.90;;;;;;;-144.65;100.00;64500.88;5025473;28;20076;-76
2022/09/09 10:20:54;;;;;;;1999.90;999.90;;;;;;;-144.65;100.00;64500.88;5029915;28;20478;-76
2022/09/09 10:23:36;;;;;;;1999.90;999.90;;;;;;;-144.65;100.00;64500.88;5027376;28;20037;-76
2022/09/09 10:26:17;;;;;;;1999.90;999.90;;;;;;;-144.65;100.00;64500.88;5027896;28;20033;-76
2022/09/09 10:29:13;;;;;;;1999.90;999.90;;;;;;;-144.65;100.00;64500.88;5027734;28;20029;-76
2022/09/09 10:31:51;;;;;;;1999.90;999.90;;;;;;;-144.65;100.00;64500.88;5027723;28;20034;-77
2022/09/09 10:34:41;;;;;;;1999.90;999.90;;;;;;;-144.65;100.00;64500.88;5030523;28;20024;-77
2022/09/09 10:37:33;;;;;;;1999.90;999.90;;;;;;;-144.65;100.00;64500.88;5029540;28;20034;-77
2022/09/09 10:40:06;;;;;;;1999.90;999.90;;;;;;;-144.65;100.00;64500.88;5019758;28;20117;-76
2022/09/09 10:42:32;;;;;;;1999.90;999.90;;;;;;;-144.65;100.00;64500.88;5028081;28;20595;-76
2022/09/09 10:45:18;;;;;;;1999.90;999.90;;;;;;;-144.65;100.00;64500.88;5029686;28;20469;-76
2022/09/09 10:48:06;;;;;;;1999.90;999.90;;;;;;;-144.65;100.00;64500.88;5027967;28;20021;-77
2022/09/09 10:50:40;;;;;;;1999.90;999.90;;;;;;;-144.65;100.00;64500.88;5028904;28;20041;-77